New Kingston, NY

11:45 PM EDT en Octubre 22, 2014 (GMT -0400)
andes ny | Change Station
CLOSE
Current Station
Estación meteorológica personal
Location: Andes, NY
Altura: 1882 ft
Estaciones meteorológicas cercanas

Alt 1882 ft 42.18 °N, 74.83 °W | Updated 13 minutes ago

Muy nublado
Muy nublado
44.4 ° F
Sensación térmica 41 ° F
N
6.0
Viento Variable Viento desde ONO
Gusts 14.0 mph

Hoy
Alta -- | Baja -- ° F
--% Posibilidad de precipitaciones
Ayer
Alta -- | Baja -- ° F
Precip. -- pul
7:19 AM 6:06 PM
Creciente menguante, 1% visible
Presión 29.87 pul
Visibilidad 10.0 Millas
Nubes Nubes dispersas 4000 ft
Muy nublado 5000 ft
Nublado 7000 ft
Vientos helados 41 ° F
Punto de rocío 43 ° F
Humedad 93%
Precipitaciones 0.27 pul
Espesor de la nieve No disponible.
UV 0 de una escala de 12
Polen .10 de una escala de 12
Calidad del aire No disponible.
Flu Activity No disponible.
METAR KMSV 230335Z AUTO 35015G24KT 10SM SCT040 BKN050 OVC070 08/06 A2987 RMK AO1

More Conditions Fewer Conditions

Presión 29.87 pul
Visibilidad 10.0 Millas
Nubes Nubes dispersas 4000 ft
Muy nublado 5000 ft
Nublado 7000 ft
Vientos helados 41 ° F
Punto de rocío 43 ° F
Humedad 93%
Precipitaciones 0.27 pul
Espesor de la nieve No disponible.
UV 0 de una escala de 12
Polen .10 de una escala de 12
Calidad del aire No disponible.
Flu Activity No disponible.
METAR KMSV 230335Z AUTO 35015G24KT 10SM SCT040 BKN050 OVC070 08/06 A2987 RMK AO1

More Conditions Fewer Conditions

10-Day Weather Forecast

Almanac

Astronomía

Oct. 22, 2014 Salida Puesta
Hora real 7:19 AM EDT 6:06 PM EDT
Crepúsculo civil 6:51 AM EDT 6:34 PM EDT
Crepúsculo náutico 6:18 AM EDT 7:07 PM EDT
Crepúsculo astronómico 5:45 AM EDT 7:39 PM EDT
Luna 5:57 AM EDT (10/22) 5:32 PM EDT (10/22)
Horas de luz 11h 43m
Horas de luz
10h 46m
Tomorrow will be 2m 41s shorter.
Creciente menguante, 1% of the Moon is Illuminated
Hoy
Creciente menguante
Oct 23
Nueva
Oct 30
Cuarto creciente
Nov 6
Luna llena
Nov 14
Cuarto menguante

Extremos de hoy

Máximos del estado Bajos del estado

Community

WunderPhotos

Upload Photos

1,764,130 ¡fotos cargadas!

Nearby

Grosos de nieve

Estación Profundido Altura
No tenemos constancia de nieve nueva.

Actividad de terremotos

Ciudad Distance Mag. Tiempo y dato
No hay informes recientes de la actividad sísmica.
Magnitud mínima muestra es 2,5.

Temperaturas de aguas costeras

Lugar Temperatura
Sin partes meteorológicos de las estaciones

Estaciones meteorológicas cercanas